createdAt,value
2018-08-20T00:01:37.768Z,9.33
2018-08-20T00:04:10.348Z,9.03
2018-08-20T00:06:51.683Z,8.97
2018-08-20T00:09:22.050Z,9.17
2018-08-20T00:11:51.724Z,8.80
2018-08-20T00:14:22.321Z,9.50
2018-08-20T00:16:50.973Z,9.20
2018-08-20T00:19:19.713Z,9.17
2018-08-20T00:21:48.385Z,10.13
2018-08-20T00:24:17.184Z,9.97
2018-08-20T00:26:46.942Z,9.33
2018-08-20T00:29:15.605Z,10.30
2018-08-20T00:31:44.228Z,9.70
2018-08-20T00:34:13.086Z,9.33
2018-08-20T00:36:42.001Z,9.83
2018-08-20T00:39:11.454Z,10.70
2018-08-20T00:41:40.094Z,9.73
2018-08-20T00:44:12.909Z,9.93
2018-08-20T00:46:42.611Z,10.63
2018-08-20T00:49:11.646Z,10.33
2018-08-20T00:51:40.347Z,10.13
2018-08-20T00:54:09.036Z,9.80
2018-08-20T00:56:38.678Z,10.23
2018-08-20T00:59:07.249Z,10.23
2018-08-20T01:01:35.824Z,10.60
2018-08-20T01:04:04.548Z,10.27
2018-08-20T01:06:34.158Z,10.57
2018-08-20T01:09:02.939Z,10.83
2018-08-20T01:11:31.628Z,10.17
2018-08-20T01:14:00.842Z,11.27
2018-08-20T01:16:29.396Z,10.83
2018-08-20T01:18:58.014Z,10.53
2018-08-20T01:21:26.823Z,11.03
2018-08-20T01:23:55.408Z,11.77
2018-08-20T01:26:24.409Z,11.33
2018-08-20T01:28:52.989Z,11.03
2018-08-20T01:31:21.645Z,10.70
2018-08-20T01:33:50.364Z,10.80
2018-08-20T01:36:19.026Z,11.30
2018-08-20T01:38:47.710Z,12.33
2018-08-20T01:41:16.397Z,12.37
2018-08-20T01:43:44.997Z,12.20
2018-08-20T01:46:13.669Z,11.90
2018-08-20T01:48:42.352Z,12.20
2018-08-20T01:51:11.084Z,12.33
2018-08-20T01:53:39.736Z,11.27
2018-08-20T01:56:08.690Z,11.80
2018-08-20T01:58:38.268Z,10.80
2018-08-20T02:01:06.921Z,11.07
2018-08-20T02:03:35.639Z,11.73
2018-08-20T02:06:04.350Z,11.50
2018-08-20T02:08:33.136Z,11.60
2018-08-20T02:11:01.777Z,11.28
2018-08-20T02:13:30.490Z,12.00
2018-08-20T02:15:59.129Z,12.00
2018-08-20T02:18:27.725Z,12.60
2018-08-20T02:20:56.516Z,12.10
2018-08-20T02:23:25.061Z,12.93
2018-08-20T02:25:55.149Z,12.73
2018-08-20T02:28:23.849Z,13.73
2018-08-20T02:30:52.694Z,12.90
2018-08-20T02:33:21.262Z,13.07
2018-08-20T02:35:50.344Z,12.90
2018-08-20T02:38:18.932Z,13.90
2018-08-20T02:40:47.539Z,13.30
2018-08-20T02:43:16.300Z,13.67
2018-08-20T02:45:45.038Z,13.70
2018-08-20T02:48:13.645Z,14.13
2018-08-20T02:50:43.233Z,14.87
2018-08-20T02:53:11.918Z,14.20
2018-08-20T02:55:40.542Z,14.50
2018-08-20T02:58:09.280Z,14.27
2018-08-20T03:00:37.965Z,12.80
2018-08-20T03:03:06.643Z,13.60
2018-08-20T03:05:35.350Z,14.07
2018-08-20T03:08:04.209Z,13.93
2018-08-20T03:10:32.828Z,14.00
2018-08-20T03:13:01.632Z,14.23
2018-08-20T03:15:30.383Z,15.07
2018-08-20T03:17:59.072Z,16.13
2018-08-20T03:20:27.788Z,15.10
2018-08-20T03:22:56.512Z,15.37
2018-08-20T03:25:25.118Z,16.27
2018-08-20T03:27:53.764Z,16.50
2018-08-20T03:30:22.478Z,16.80
2018-08-20T03:32:51.165Z,15.27
2018-08-20T03:35:20.581Z,16.43
2018-08-20T03:37:49.254Z,15.37
2018-08-20T03:40:17.892Z,16.63
2018-08-20T03:42:46.528Z,15.87
2018-08-20T03:45:15.129Z,16.57
2018-08-20T03:47:43.889Z,16.10
2018-08-20T03:50:14.444Z,16.10
2018-08-20T03:52:43.080Z,18.00
2018-08-20T03:55:12.433Z,17.77
2018-08-20T03:57:41.172Z,17.67
2018-08-20T04:00:11.092Z,16.97
2018-08-20T04:02:40.751Z,15.50
2018-08-20T04:05:09.520Z,16.23
2018-08-20T04:07:38.362Z,16.43
2018-08-20T04:10:07.245Z,16.60
2018-08-20T04:12:35.854Z,14.30
2018-08-20T04:15:04.513Z,15.07
2018-08-20T04:17:33.166Z,15.97
2018-08-20T04:20:02.610Z,15.57
2018-08-20T04:22:32.289Z,15.97
2018-08-20T04:25:01.112Z,17.07
2018-08-20T04:27:29.829Z,17.73
2018-08-20T04:29:58.543Z,17.00
2018-08-20T04:32:27.284Z,17.13
2018-08-20T04:34:56.496Z,18.07
2018-08-20T04:37:26.117Z,16.37
2018-08-20T04:39:54.837Z,16.40
2018-08-20T04:42:23.561Z,17.67
2018-08-20T04:44:52.506Z,17.57
2018-08-20T04:47:21.114Z,17.03
2018-08-20T04:49:49.854Z,16.70
2018-08-20T04:52:18.584Z,17.37
2018-08-20T04:54:47.221Z,17.27
2018-08-20T04:57:16.169Z,18.43
2018-08-20T04:59:44.824Z,17.20
2018-08-20T05:02:13.600Z,16.63
2018-08-20T05:04:42.432Z,17.23
2018-08-20T05:07:11.097Z,16.93
2018-08-20T05:09:39.818Z,16.33
2018-08-20T05:12:09.497Z,16.63
2018-08-20T05:14:38.212Z,16.43
2018-08-20T05:17:06.848Z,16.30
2018-08-20T05:19:36.439Z,16.03
2018-08-20T05:22:05.235Z,15.30
2018-08-20T05:24:33.837Z,14.30
2018-08-20T05:27:02.501Z,14.53
2018-08-20T05:29:31.210Z,14.33
2018-08-20T05:31:59.941Z,14.20
2018-08-20T05:34:28.531Z,14.50
2018-08-20T05:36:57.346Z,13.33
2018-08-20T05:39:25.945Z,13.63
2018-08-20T05:41:54.624Z,13.70
2018-08-20T05:44:23.305Z,13.33
2018-08-20T05:46:52.133Z,13.57
2018-08-20T05:49:20.705Z,12.80
2018-08-20T05:51:49.451Z,13.07
2018-08-20T05:54:18.087Z,12.93
2018-08-20T05:56:46.725Z,13.03
2018-08-20T05:59:15.812Z,14.20
2018-08-20T06:01:44.539Z,13.50
2018-08-20T06:04:14.428Z,13.30
2018-08-20T06:06:43.131Z,13.47
2018-08-20T06:09:12.191Z,13.40
2018-08-20T06:11:40.980Z,12.97
2018-08-20T06:14:09.950Z,12.90
2018-08-20T06:16:38.622Z,12.87
2018-08-20T06:19:07.460Z,12.87
2018-08-20T06:21:36.052Z,12.63
2018-08-20T06:24:04.713Z,12.73
2018-08-20T06:26:33.363Z,13.30
2018-08-20T06:29:02.012Z,11.93
2018-08-20T06:31:30.606Z,12.53
2018-08-20T06:33:59.212Z,12.50
2018-08-20T06:36:27.933Z,12.07
2018-08-20T06:38:56.547Z,12.17
2018-08-20T06:41:25.452Z,11.83
2018-08-20T06:43:54.136Z,12.50
2018-08-20T06:46:22.822Z,12.60
2018-08-20T06:48:51.620Z,12.20
2018-08-20T06:51:20.308Z,11.90
2018-08-20T06:53:49.000Z,12.40
2018-08-20T06:56:17.665Z,12.33
2018-08-20T06:58:47.488Z,12.23
2018-08-20T07:01:16.186Z,12.87
2018-08-20T07:03:44.862Z,12.60
2018-08-20T07:06:13.598Z,12.80
2018-08-20T07:08:42.377Z,12.43
2018-08-20T07:11:11.119Z,12.07
2018-08-20T07:13:39.933Z,13.10
2018-08-20T07:16:09.232Z,18.50
2018-08-20T07:18:37.941Z,12.27
2018-08-20T07:21:06.774Z,11.57
2018-08-20T07:23:35.581Z,12.07
2018-08-20T07:26:04.248Z,11.43
2018-08-20T07:28:32.849Z,11.63
2018-08-20T07:31:01.738Z,12.20
2018-08-20T07:33:31.583Z,11.50
2018-08-20T07:36:00.238Z,11.40
2018-08-20T07:38:28.901Z,10.30
2018-08-20T07:40:57.581Z,11.03
2018-08-20T07:43:26.230Z,10.93
2018-08-20T07:45:54.957Z,10.20
2018-08-20T07:48:23.794Z,9.73
2018-08-20T07:50:52.565Z,9.47
2018-08-20T07:53:21.357Z,9.97
2018-08-20T07:55:50.017Z,9.63
2018-08-20T07:58:19.652Z,9.63
2018-08-20T08:00:49.014Z,8.90
2018-08-20T08:03:21.796Z,9.03
2018-08-20T08:05:50.542Z,8.63
2018-08-20T08:08:19.318Z,8.03
2018-08-20T08:10:48.209Z,8.03
2018-08-20T08:13:16.934Z,8.43
2018-08-20T08:15:45.913Z,8.97
2018-08-20T08:18:14.560Z,8.27
2018-08-20T08:20:43.324Z,7.87
2018-08-20T08:23:13.141Z,8.83
2018-08-20T08:25:41.814Z,7.93
2018-08-20T08:28:10.413Z,8.30
2018-08-20T08:30:39.160Z,7.13
2018-08-20T08:33:07.862Z,7.77
2018-08-20T08:35:36.542Z,6.60
2018-08-20T08:38:05.421Z,6.60
2018-08-20T08:40:34.110Z,6.90
2018-08-20T08:43:02.905Z,6.00
2018-08-20T08:45:31.569Z,5.17
2018-08-20T08:48:00.359Z,5.07
2018-08-20T08:50:29.080Z,6.83
2018-08-20T08:52:57.691Z,4.53
2018-08-20T08:55:26.390Z,4.80
2018-08-20T08:57:56.006Z,4.63
2018-08-20T09:00:25.259Z,4.53
2018-08-20T09:02:54.001Z,3.93
2018-08-20T09:05:22.668Z,4.00
2018-08-20T09:07:51.348Z,4.70
2018-08-20T09:10:20.136Z,5.00
2018-08-20T09:12:48.855Z,4.33
2018-08-20T09:15:18.157Z,5.20
2018-08-20T09:17:47.257Z,4.73
2018-08-20T09:20:17.271Z,4.57
2018-08-20T09:22:46.016Z,5.00
2018-08-20T09:25:15.244Z,4.90
2018-08-20T09:27:44.990Z,4.77
2018-08-20T09:30:17.770Z,5.30
2018-08-20T09:32:47.568Z,5.70
2018-08-20T09:35:16.458Z,4.90
2018-08-20T09:37:45.285Z,5.40
2018-08-20T09:40:15.339Z,9.07
2018-08-20T09:42:44.650Z,4.40
2018-08-20T09:45:13.370Z,4.93
2018-08-20T09:47:42.981Z,5.07
2018-08-20T09:50:15.380Z,5.80
2018-08-20T09:52:44.583Z,5.97
2018-08-20T09:55:13.589Z,7.57
2018-08-20T09:57:42.594Z,6.37
2018-08-20T10:00:16.096Z,9.70
2018-08-20T10:02:44.747Z,8.90
2018-08-20T10:05:13.481Z,4.17
2018-08-20T10:07:43.241Z,4.40
2018-08-20T10:10:12.069Z,4.20
2018-08-20T10:12:40.945Z,4.87
2018-08-20T10:15:09.917Z,4.40
2018-08-20T10:17:39.357Z,6.40
2018-08-20T10:20:10.266Z,4.60
2018-08-20T10:22:39.194Z,7.13
2018-08-20T10:25:07.980Z,5.47
2018-08-20T10:27:36.581Z,4.67
2018-08-20T10:30:06.333Z,5.50
2018-08-20T10:32:34.903Z,5.80
2018-08-20T10:35:03.616Z,5.90
2018-08-20T10:37:32.960Z,4.53
2018-08-20T10:40:01.975Z,5.27
2018-08-20T10:42:30.969Z,6.87
2018-08-20T10:45:04.829Z,6.13
2018-08-20T10:47:42.461Z,5.50
2018-08-20T10:50:14.409Z,8.13
2018-08-20T10:52:44.673Z,6.10
2018-08-20T10:55:13.344Z,5.30
2018-08-20T10:57:43.090Z,5.10
2018-08-20T11:00:12.393Z,5.37
2018-08-20T11:02:41.321Z,5.80
2018-08-20T11:05:12.285Z,5.77
2018-08-20T11:07:41.951Z,5.70
2018-08-20T11:10:11.736Z,5.50
2018-08-20T11:12:41.470Z,5.70
2018-08-20T11:15:11.209Z,6.50
2018-08-20T11:17:41.289Z,7.90
2018-08-20T11:20:13.674Z,5.77
2018-08-20T11:22:42.946Z,5.73
2018-08-20T11:25:13.093Z,7.27
2018-08-20T11:27:42.057Z,5.97
2018-08-20T11:30:12.500Z,5.90
2018-08-20T11:32:41.278Z,5.25
2018-08-20T11:35:11.433Z,6.47
2018-08-20T11:37:40.345Z,5.67
2018-08-20T11:40:09.624Z,5.53
2018-08-20T11:42:38.900Z,5.00
2018-08-20T11:45:09.864Z,5.37
2018-08-20T11:47:38.532Z,5.20
2018-08-20T12:31:16.616Z,4.97
2018-08-20T12:33:45.536Z,5.22
2018-08-20T12:36:14.348Z,4.87
2018-08-20T12:38:42.997Z,5.83
2018-08-20T12:41:12.777Z,5.22
2018-08-20T12:43:41.421Z,5.30
2018-08-20T12:46:10.761Z,5.10
2018-08-20T12:48:40.076Z,5.95
2018-08-20T12:51:08.789Z,4.45
2018-08-20T12:53:38.193Z,4.47
2018-08-20T12:56:07.072Z,4.42
2018-08-20T12:58:36.476Z,5.70
2018-08-20T13:01:05.887Z,4.58
2018-08-20T13:03:34.648Z,4.53
2018-08-20T13:06:03.349Z,4.47
2018-08-20T13:08:32.043Z,5.25
2018-08-20T13:11:00.766Z,5.30
2018-08-20T13:13:29.643Z,5.25
2018-08-20T13:15:58.750Z,5.10
2018-08-20T13:18:27.479Z,5.05
2018-08-20T13:20:56.212Z,4.78
2018-08-20T13:23:26.145Z,5.95
2018-08-20T13:25:54.805Z,5.30
2018-08-20T13:28:24.316Z,5.10
2018-08-20T13:30:53.433Z,5.60
2018-08-20T13:33:22.741Z,5.72
2018-08-20T13:35:51.452Z,5.40
2018-08-20T13:38:20.477Z,5.70
2018-08-20T13:40:49.408Z,5.22
2018-08-20T13:43:18.156Z,6.35
2018-08-20T13:45:47.684Z,5.47
2018-08-20T13:48:17.242Z,6.28
2018-08-20T13:50:46.943Z,6.33
2018-08-20T13:53:16.451Z,5.75
2018-08-20T13:55:45.293Z,5.58
2018-08-20T13:58:14.722Z,6.08
2018-08-20T14:00:43.436Z,5.70
2018-08-20T14:03:12.101Z,6.12
2018-08-20T14:05:40.856Z,6.05
2018-08-20T14:08:09.864Z,5.90
2018-08-20T14:10:38.728Z,5.92
2018-08-20T14:13:08.106Z,5.72
2018-08-20T14:15:37.556Z,5.95
2018-08-20T14:18:06.381Z,5.92
2018-08-20T14:20:35.043Z,6.20
2018-08-20T14:23:05.054Z,5.28
2018-08-20T14:25:34.271Z,5.67
2018-08-20T14:28:04.077Z,5.97
2018-08-20T14:30:32.823Z,5.90
2018-08-20T14:33:01.489Z,5.65
2018-08-20T14:35:30.341Z,5.60
2018-08-20T14:37:58.974Z,6.12
2018-08-20T14:40:28.423Z,5.30
2018-08-20T14:42:57.315Z,5.70
2018-08-20T14:45:30.065Z,5.90
2018-08-20T14:47:58.918Z,6.28
2018-08-20T14:50:28.388Z,5.90
2018-08-20T14:52:57.831Z,6.12
2018-08-20T14:55:26.678Z,6.20
2018-08-20T14:57:55.334Z,5.65
2018-08-20T15:00:25.085Z,6.08
2018-08-20T15:02:53.809Z,5.72
2018-08-20T15:05:23.005Z,6.15
2018-08-20T15:07:51.775Z,6.40
2018-08-20T15:10:20.582Z,7.05
2018-08-20T15:12:49.175Z,6.35
2018-08-20T15:15:17.986Z,6.92
2018-08-20T15:17:46.766Z,7.85
2018-08-20T15:20:15.437Z,8.38
2018-08-20T15:22:44.112Z,7.65
2018-08-20T15:25:12.892Z,7.12
2018-08-20T15:27:41.573Z,6.67
2018-08-20T15:30:10.429Z,13.38
2018-08-20T15:32:39.299Z,7.40
2018-08-20T15:35:07.966Z,7.17
2018-08-20T15:37:36.598Z,7.65
2018-08-20T15:40:05.805Z,7.95
2018-08-20T15:42:35.064Z,7.30
2018-08-20T15:45:05.032Z,7.30
2018-08-20T15:47:33.752Z,7.15
2018-08-20T15:50:02.490Z,7.95
2018-08-20T15:52:31.193Z,7.65
2018-08-20T15:54:59.792Z,7.70
2018-08-20T15:57:28.471Z,8.00
2018-08-20T15:59:57.121Z,7.87
2018-08-20T16:02:25.775Z,7.62
2018-08-20T16:04:54.630Z,8.08
2018-08-20T16:07:23.293Z,8.10
2018-08-20T16:09:51.997Z,7.87
2018-08-20T16:12:20.572Z,7.87
2018-08-20T16:14:49.277Z,7.67
2018-08-20T16:17:17.900Z,8.15
2018-08-20T16:19:46.828Z,7.62
2018-08-20T16:22:15.703Z,7.37
2018-08-20T16:24:44.426Z,8.33
2018-08-20T16:27:13.251Z,8.10
2018-08-20T16:29:42.050Z,8.60
2018-08-20T16:32:11.777Z,8.20
2018-08-20T16:34:40.504Z,9.15
2018-08-20T16:37:09.245Z,9.10
2018-08-20T16:39:38.307Z,8.23
2018-08-20T16:42:06.950Z,8.63
2018-08-20T16:44:36.122Z,8.63
2018-08-20T16:47:04.977Z,8.97
2018-08-20T16:49:33.734Z,9.03
2018-08-20T16:52:02.509Z,9.23
2018-08-20T16:54:32.448Z,9.70
2018-08-20T16:57:01.080Z,9.33
2018-08-20T16:59:29.885Z,9.50
2018-08-20T17:01:58.600Z,10.00
2018-08-20T17:04:32.005Z,9.37
2018-08-20T17:07:02.063Z,9.67
2018-08-20T17:09:30.804Z,10.00
2018-08-20T17:11:59.392Z,9.60
2018-08-20T17:14:27.988Z,9.40
2018-08-20T17:16:56.845Z,9.70
2018-08-20T17:19:25.488Z,9.17
2018-08-20T17:21:54.243Z,9.17
2018-08-20T17:24:30.581Z,9.33
2018-08-20T17:27:01.689Z,9.07
2018-08-20T17:29:30.463Z,9.20
2018-08-20T17:32:00.958Z,8.80
2018-08-20T17:34:29.886Z,8.53
2018-08-20T17:36:58.601Z,8.07
2018-08-20T17:39:27.377Z,8.80
2018-08-20T17:41:56.041Z,8.90
2018-08-20T17:44:24.729Z,8.90
2018-08-20T17:46:53.583Z,8.83
2018-08-20T17:49:27.377Z,7.93
2018-08-20T17:51:56.373Z,7.40
2018-08-20T17:54:26.351Z,7.50
2018-08-20T17:56:55.882Z,8.20
2018-08-20T17:59:24.480Z,8.13
2018-08-20T18:01:54.973Z,8.27
2018-08-20T18:04:23.899Z,8.30
2018-08-20T18:06:55.237Z,8.87
2018-08-20T18:09:23.858Z,8.43
2018-08-20T18:11:53.843Z,8.47
2018-08-20T18:14:23.550Z,9.07
2018-08-20T18:16:52.353Z,9.00
2018-08-20T18:19:21.165Z,9.40
2018-08-20T18:21:50.152Z,9.33
2018-08-20T18:24:20.279Z,9.53
2018-08-20T18:26:54.235Z,10.00
2018-08-20T18:29:23.990Z,9.37
2018-08-20T18:31:56.525Z,8.27
2018-08-20T18:34:25.798Z,8.80
2018-08-20T18:36:54.493Z,7.90
2018-08-20T18:39:23.777Z,8.03
2018-08-20T18:42:13.882Z,8.83
2018-08-20T18:44:42.690Z,8.70
2018-08-20T18:47:12.989Z,7.83
2018-08-20T18:49:51.781Z,8.47
2018-08-20T18:52:21.686Z,8.87
2018-08-20T18:54:53.417Z,8.30
2018-08-20T18:57:29.519Z,8.70
2018-08-20T19:00:00.268Z,8.60
2018-08-20T19:02:47.060Z,9.07
2018-08-20T19:05:17.096Z,8.67
2018-08-20T19:07:45.973Z,8.97
2018-08-20T19:10:23.077Z,9.45
2018-08-20T19:12:52.057Z,9.77
2018-08-20T19:15:35.680Z,9.37
2018-08-20T19:18:04.608Z,8.03
2018-08-20T19:20:33.394Z,9.43
2018-08-20T19:23:02.097Z,9.33
2018-08-20T19:25:31.383Z,8.93
2018-08-20T19:28:03.932Z,8.80
2018-08-20T19:30:33.566Z,8.47
2018-08-20T19:33:04.522Z,8.17
2018-08-20T19:35:33.097Z,7.73
2018-08-20T19:38:01.789Z,7.93
2018-08-20T19:40:30.707Z,6.93
2018-08-20T19:42:59.409Z,7.13
2018-08-20T19:45:32.277Z,6.80
2018-08-20T19:48:00.982Z,6.37
2018-08-20T19:50:29.860Z,6.40
2018-08-20T19:52:58.637Z,6.57
2018-08-20T19:55:27.277Z,6.67
2018-08-20T19:57:56.069Z,6.63
2018-08-20T20:00:24.786Z,6.10
2018-08-20T20:02:53.481Z,6.63
2018-08-20T20:05:22.274Z,5.87
2018-08-20T20:07:57.395Z,6.27
2018-08-20T20:10:27.137Z,6.27
2018-08-20T20:12:56.571Z,6.20
2018-08-20T20:15:25.876Z,6.13
2018-08-20T20:17:55.696Z,6.47
2018-08-20T20:20:24.522Z,5.73
2018-08-20T20:22:53.510Z,6.03
2018-08-20T20:25:22.466Z,5.63
2018-08-20T20:27:51.165Z,5.50
2018-08-20T20:30:19.761Z,5.63
2018-08-20T20:32:49.565Z,5.50
2018-08-20T20:35:18.229Z,5.90
2018-08-20T20:37:46.866Z,6.00
2018-08-20T20:40:15.590Z,5.73
2018-08-20T20:42:44.417Z,6.20
2018-08-20T20:45:13.041Z,6.53
2018-08-20T20:47:43.430Z,6.50
2018-08-20T20:50:12.108Z,6.50
2018-08-20T20:52:41.198Z,6.07
2018-08-20T20:55:10.077Z,6.03
2018-08-20T20:57:38.683Z,6.40
2018-08-20T21:00:08.902Z,6.27
2018-08-20T21:02:38.998Z,6.57
2018-08-20T21:05:10.428Z,6.00
2018-08-20T21:07:39.392Z,6.00
2018-08-20T21:10:08.776Z,6.17
2018-08-20T21:12:37.510Z,6.07
2018-08-20T21:15:08.000Z,6.37
2018-08-20T21:17:37.858Z,6.30
2018-08-20T21:20:07.403Z,5.83
2018-08-20T21:22:37.755Z,5.73
2018-08-20T21:25:08.445Z,6.60
2018-08-20T21:27:37.185Z,6.13
2018-08-20T21:30:06.209Z,6.40
2018-08-20T21:32:35.976Z,5.93
2018-08-20T21:35:04.689Z,6.13
2018-08-20T21:37:33.397Z,6.07
2018-08-20T21:40:02.148Z,6.17
2018-08-20T21:42:37.343Z,5.93
2018-08-20T21:45:06.551Z,6.13
2018-08-20T21:47:35.125Z,6.40
2018-08-20T21:50:03.797Z,5.73
2018-08-20T21:52:33.209Z,6.00
2018-08-20T21:55:03.041Z,5.33
2018-08-20T21:57:32.469Z,5.30
2018-08-20T22:00:12.516Z,6.20
2018-08-20T22:02:41.945Z,5.47
2018-08-20T22:05:10.660Z,5.47
2018-08-20T22:07:40.285Z,5.13
2018-08-20T22:10:09.136Z,5.67
2018-08-20T22:12:37.834Z,5.50
2018-08-20T22:15:07.996Z,5.60
2018-08-20T22:17:37.053Z,5.50
2018-08-20T22:20:07.655Z,5.83
2018-08-20T22:22:36.366Z,6.00
2018-08-20T22:25:09.738Z,5.60
2018-08-20T22:27:43.688Z,5.77
2018-08-20T22:30:13.271Z,5.17
2018-08-20T22:32:44.257Z,5.17
2018-08-20T22:35:18.356Z,5.13
2018-08-20T22:37:49.328Z,5.47
2018-08-20T22:40:19.785Z,5.87
2018-08-20T22:42:55.077Z,5.17
2018-08-20T22:45:23.794Z,5.77
2018-08-20T22:47:53.399Z,5.20
2018-08-20T22:50:22.105Z,5.23
2018-08-20T22:52:51.846Z,5.17
2018-08-20T22:55:21.764Z,5.50
2018-08-20T22:58:16.019Z,4.87
2018-08-20T23:00:44.681Z,5.23
2018-08-20T23:03:13.349Z,5.17
2018-08-20T23:05:42.006Z,5.53
2018-08-20T23:08:15.928Z,6.17
2018-08-20T23:10:44.606Z,5.47
2018-08-20T23:13:13.429Z,5.70
2018-08-20T23:15:42.328Z,5.40
2018-08-20T23:18:11.009Z,5.40
2018-08-20T23:20:39.789Z,6.20
2018-08-20T23:23:09.279Z,5.50
2018-08-20T23:25:38.148Z,5.30
2018-08-20T23:28:07.570Z,5.50
2018-08-20T23:30:36.279Z,4.90
2018-08-20T23:33:06.528Z,5.37
2018-08-20T23:35:36.066Z,6.00
2018-08-20T23:38:05.000Z,6.63
2018-08-20T23:40:33.741Z,7.33
2018-08-20T23:43:02.496Z,7.77
2018-08-20T23:45:31.060Z,7.03
2018-08-20T23:47:59.755Z,6.30
2018-08-20T23:50:28.330Z,6.63
2018-08-20T23:52:56.924Z,7.33
2018-08-20T23:55:25.636Z,7.17
2018-08-20T23:57:54.275Z,7.30
